sensor_id;sensor_type;location;lat;lon;timestamp;P1;durP1;ratioP1;P2;durP2;ratioP2
42742;SDS011;28397;44.552;-0.848;2023-02-08T00:00:19;30.83;;;13.20;;
42742;SDS011;28397;44.552;-0.848;2023-02-08T00:02:45;55.72;;;22.67;;
42742;SDS011;28397;44.552;-0.848;2023-02-08T00:05:11;49.78;;;20.05;;
42742;SDS011;28397;44.552;-0.848;2023-02-08T00:07:36;24.02;;;9.38;;
42742;SDS011;28397;44.552;-0.848;2023-02-08T00:10:02;15.68;;;7.35;;
42742;SDS011;28397;44.552;-0.848;2023-02-08T00:12:30;29.38;;;11.60;;
42742;SDS011;28397;44.552;-0.848;2023-02-08T00:14:57;40.05;;;14.85;;
42742;SDS011;28397;44.552;-0.848;2023-02-08T00:17:22;37.75;;;15.52;;
42742;SDS011;28397;44.552;-0.848;2023-02-08T00:19:48;32.15;;;12.18;;
42742;SDS011;28397;44.552;-0.848;2023-02-08T00:22:14;47.38;;;19.42;;
42742;SDS011;28397;44.552;-0.848;2023-02-08T00:24:39;42.75;;;15.68;;
42742;SDS011;28397;44.552;-0.848;2023-02-08T00:27:05;49.17;;;17.70;;
42742;SDS011;28397;44.552;-0.848;2023-02-08T00:29:31;40.25;;;15.95;;
42742;SDS011;28397;44.552;-0.848;2023-02-08T00:31:57;27.75;;;11.23;;
42742;SDS011;28397;44.552;-0.848;2023-02-08T00:34:23;41.83;;;17.08;;
42742;SDS011;28397;44.552;-0.848;2023-02-08T00:36:48;42.55;;;17.85;;
42742;SDS011;28397;44.552;-0.848;2023-02-08T00:39:14;36.28;;;15.10;;
42742;SDS011;28397;44.552;-0.848;2023-02-08T00:41:40;43.30;;;18.55;;
42742;SDS011;28397;44.552;-0.848;2023-02-08T00:44:05;34.40;;;13.55;;
42742;SDS011;28397;44.552;-0.848;2023-02-08T00:46:31;28.50;;;12.00;;
42742;SDS011;28397;44.552;-0.848;2023-02-08T00:48:57;41.90;;;19.70;;
42742;SDS011;28397;44.552;-0.848;2023-02-08T00:51:22;45.55;;;24.50;;
42742;SDS011;28397;44.552;-0.848;2023-02-08T00:53:48;50.53;;;25.85;;
42742;SDS011;28397;44.552;-0.848;2023-02-08T00:56:14;27.27;;;14.93;;
42742;SDS011;28397;44.552;-0.848;2023-02-08T00:58:40;50.65;;;25.40;;
42742;SDS011;28397;44.552;-0.848;2023-02-08T01:01:07;22.70;;;12.35;;
42742;SDS011;28397;44.552;-0.848;2023-02-08T01:03:34;10.68;;;5.20;;
42742;SDS011;28397;44.552;-0.848;2023-02-08T01:06:01;40.92;;;16.95;;
42742;SDS011;28397;44.552;-0.848;2023-02-08T01:08:28;24.55;;;9.73;;
42742;SDS011;28397;44.552;-0.848;2023-02-08T01:11:00;25.70;;;11.90;;
42742;SDS011;28397;44.552;-0.848;2023-02-08T01:13:35;27.25;;;11.57;;
42742;SDS011;28397;44.552;-0.848;2023-02-08T01:16:15;35.97;;;15.77;;
42742;SDS011;28397;44.552;-0.848;2023-02-08T01:18:47;27.50;;;11.85;;
42742;SDS011;28397;44.552;-0.848;2023-02-08T01:21:15;30.77;;;14.43;;
42742;SDS011;28397;44.552;-0.848;2023-02-08T01:23:42;37.70;;;18.40;;
42742;SDS011;28397;44.552;-0.848;2023-02-08T01:26:09;31.88;;;15.60;;
42742;SDS011;28397;44.552;-0.848;2023-02-08T01:28:36;23.73;;;11.05;;
42742;SDS011;28397;44.552;-0.848;2023-02-08T01:31:06;14.85;;;7.45;;
42742;SDS011;28397;44.552;-0.848;2023-02-08T01:33:33;11.85;;;5.70;;
42742;SDS011;28397;44.552;-0.848;2023-02-08T01:35:59;14.10;;;6.50;;
42742;SDS011;28397;44.552;-0.848;2023-02-08T01:38:25;16.27;;;8.65;;
42742;SDS011;28397;44.552;-0.848;2023-02-08T01:40:51;13.38;;;7.50;;
42742;SDS011;28397;44.552;-0.848;2023-02-08T01:43:24;13.13;;;7.97;;
42742;SDS011;28397;44.552;-0.848;2023-02-08T01:45:50;10.65;;;7.28;;
42742;SDS011;28397;44.552;-0.848;2023-02-08T01:53:38;11.40;;;5.97;;
42742;SDS011;28397;44.552;-0.848;2023-02-08T01:56:07;11.50;;;7.60;;
42742;SDS011;28397;44.552;-0.848;2023-02-08T01:58:38;14.73;;;7.53;;
42742;SDS011;28397;44.552;-0.848;2023-02-08T02:01:07;11.23;;;5.25;;
42742;SDS011;28397;44.552;-0.848;2023-02-08T02:03:33;11.07;;;5.95;;
42742;SDS011;28397;44.552;-0.848;2023-02-08T02:06:00;11.43;;;5.60;;
42742;SDS011;28397;44.552;-0.848;2023-02-08T02:08:31;10.50;;;5.63;;
42742;SDS011;28397;44.552;-0.848;2023-02-08T02:10:56;11.63;;;5.07;;
42742;SDS011;28397;44.552;-0.848;2023-02-08T02:13:23;9.60;;;4.45;;
42742;SDS011;28397;44.552;-0.848;2023-02-08T02:15:51;9.23;;;4.05;;
42742;SDS011;28397;44.552;-0.848;2023-02-08T02:18:22;6.75;;;4.03;;
42742;SDS011;28397;44.552;-0.848;2023-02-08T02:23:40;11.80;;;5.72;;
42742;SDS011;28397;44.552;-0.848;2023-02-08T02:34:49;10.82;;;5.68;;
42742;SDS011;28397;44.552;-0.848;2023-02-08T02:42:35;13.43;;;6.18;;
42742;SDS011;28397;44.552;-0.848;2023-02-08T02:46:26;11.90;;;6.97;;
42742;SDS011;28397;44.552;-0.848;2023-02-08T02:51:08;11.10;;;5.45;;
42742;SDS011;28397;44.552;-0.848;2023-02-08T02:56:23;8.18;;;4.50;;
42742;SDS011;28397;44.552;-0.848;2023-02-08T02:59:05;7.93;;;4.30;;
42742;SDS011;28397;44.552;-0.848;2023-02-08T03:01:33;7.32;;;4.18;;
42742;SDS011;28397;44.552;-0.848;2023-02-08T03:04:10;9.07;;;4.20;;
42742;SDS011;28397;44.552;-0.848;2023-02-08T03:23:14;8.82;;;4.20;;
42742;SDS011;28397;44.552;-0.848;2023-02-08T03:39:27;10.57;;;4.30;;
42742;SDS011;28397;44.552;-0.848;2023-02-08T03:41:57;11.10;;;4.63;;
42742;SDS011;28397;44.552;-0.848;2023-02-08T03:44:31;7.57;;;4.60;;
42742;SDS011;28397;44.552;-0.848;2023-02-08T03:47:04;9.32;;;4.80;;
42742;SDS011;28397;44.552;-0.848;2023-02-08T03:49:47;9.20;;;4.43;;
42742;SDS011;28397;44.552;-0.848;2023-02-08T03:52:16;9.15;;;4.10;;
42742;SDS011;28397;44.552;-0.848;2023-02-08T03:54:48;7.65;;;4.50;;
42742;SDS011;28397;44.552;-0.848;2023-02-08T03:57:37;9.48;;;4.43;;
42742;SDS011;28397;44.552;-0.848;2023-02-08T04:00:17;7.25;;;4.35;;
42742;SDS011;28397;44.552;-0.848;2023-02-08T04:02:47;8.73;;;4.68;;
42742;SDS011;28397;44.552;-0.848;2023-02-08T04:05:21;9.50;;;4.70;;
42742;SDS011;28397;44.552;-0.848;2023-02-08T04:07:48;10.45;;;4.82;;
42742;SDS011;28397;44.552;-0.848;2023-02-08T04:10:14;12.43;;;6.07;;
42742;SDS011;28397;44.552;-0.848;2023-02-08T04:12:40;10.95;;;5.40;;
42742;SDS011;28397;44.552;-0.848;2023-02-08T04:15:06;9.07;;;5.15;;
42742;SDS011;28397;44.552;-0.848;2023-02-08T04:17:32;8.57;;;4.88;;
42742;SDS011;28397;44.552;-0.848;2023-02-08T04:19:58;11.77;;;5.90;;
42742;SDS011;28397;44.552;-0.848;2023-02-08T04:22:24;11.27;;;5.25;;
42742;SDS011;28397;44.552;-0.848;2023-02-08T04:24:50;11.27;;;5.32;;
42742;SDS011;28397;44.552;-0.848;2023-02-08T04:27:16;8.23;;;4.82;;
42742;SDS011;28397;44.552;-0.848;2023-02-08T04:29:41;10.63;;;5.63;;
42742;SDS011;28397;44.552;-0.848;2023-02-08T04:32:07;10.75;;;5.50;;
42742;SDS011;28397;44.552;-0.848;2023-02-08T04:34:36;12.57;;;5.32;;
42742;SDS011;28397;44.552;-0.848;2023-02-08T04:37:02;12.50;;;5.38;;
42742;SDS011;28397;44.552;-0.848;2023-02-08T04:39:29;9.80;;;5.22;;
42742;SDS011;28397;44.552;-0.848;2023-02-08T04:41:55;8.73;;;5.10;;
42742;SDS011;28397;44.552;-0.848;2023-02-08T04:44:20;9.68;;;5.50;;
42742;SDS011;28397;44.552;-0.848;2023-02-08T04:46:46;12.85;;;5.53;;
42742;SDS011;28397;44.552;-0.848;2023-02-08T04:49:12;8.77;;;5.22;;
42742;SDS011;28397;44.552;-0.848;2023-02-08T04:51:37;10.65;;;5.05;;
42742;SDS011;28397;44.552;-0.848;2023-02-08T04:54:03;9.82;;;5.28;;
42742;SDS011;28397;44.552;-0.848;2023-02-08T04:56:29;10.18;;;5.80;;
42742;SDS011;28397;44.552;-0.848;2023-02-08T04:58:54;11.55;;;5.75;;
42742;SDS011;28397;44.552;-0.848;2023-02-08T05:01:20;10.80;;;5.32;;
42742;SDS011;28397;44.552;-0.848;2023-02-08T05:03:46;9.20;;;5.72;;
42742;SDS011;28397;44.552;-0.848;2023-02-08T05:06:12;8.73;;;5.32;;
42742;SDS011;28397;44.552;-0.848;2023-02-08T05:08:38;9.43;;;6.22;;
42742;SDS011;28397;44.552;-0.848;2023-02-08T05:11:04;11.10;;;6.53;;
42742;SDS011;28397;44.552;-0.848;2023-02-08T05:13:30;14.82;;;6.35;;
42742;SDS011;28397;44.552;-0.848;2023-02-08T05:15:55;10.40;;;5.35;;
42742;SDS011;28397;44.552;-0.848;2023-02-08T05:18:21;8.07;;;5.65;;
42742;SDS011;28397;44.552;-0.848;2023-02-08T05:20:57;10.43;;;6.30;;
42742;SDS011;28397;44.552;-0.848;2023-02-08T05:23:24;12.45;;;8.93;;
42742;SDS011;28397;44.552;-0.848;2023-02-08T05:25:51;19.25;;;10.05;;
42742;SDS011;28397;44.552;-0.848;2023-02-08T05:28:17;19.45;;;11.82;;
42742;SDS011;28397;44.552;-0.848;2023-02-08T05:30:43;32.90;;;19.70;;
42742;SDS011;28397;44.552;-0.848;2023-02-08T05:33:10;23.42;;;13.65;;
42742;SDS011;28397;44.552;-0.848;2023-02-08T05:35:36;21.42;;;13.38;;
42742;SDS011;28397;44.552;-0.848;2023-02-08T05:38:02;21.92;;;14.40;;
42742;SDS011;28397;44.552;-0.848;2023-02-08T05:40:27;21.60;;;14.35;;
42742;SDS011;28397;44.552;-0.848;2023-02-08T05:42:53;13.95;;;8.80;;
42742;SDS011;28397;44.552;-0.848;2023-02-08T05:45:19;12.15;;;7.13;;
42742;SDS011;28397;44.552;-0.848;2023-02-08T05:47:45;11.40;;;7.75;;
42742;SDS011;28397;44.552;-0.848;2023-02-08T05:50:13;9.80;;;7.55;;
42742;SDS011;28397;44.552;-0.848;2023-02-08T05:52:39;11.25;;;7.20;;
42742;SDS011;28397;44.552;-0.848;2023-02-08T05:55:05;12.85;;;8.38;;
42742;SDS011;28397;44.552;-0.848;2023-02-08T05:57:31;16.05;;;9.30;;
42742;SDS011;28397;44.552;-0.848;2023-02-08T05:59:57;11.02;;;7.40;;
42742;SDS011;28397;44.552;-0.848;2023-02-08T06:02:23;16.75;;;10.85;;
42742;SDS011;28397;44.552;-0.848;2023-02-08T06:04:49;9.10;;;6.55;;
42742;SDS011;28397;44.552;-0.848;2023-02-08T06:07:15;10.85;;;6.68;;
42742;SDS011;28397;44.552;-0.848;2023-02-08T06:09:40;12.55;;;7.45;;
42742;SDS011;28397;44.552;-0.848;2023-02-08T06:12:06;13.13;;;8.10;;
42742;SDS011;28397;44.552;-0.848;2023-02-08T06:14:32;11.55;;;7.68;;
42742;SDS011;28397;44.552;-0.848;2023-02-08T06:16:58;8.98;;;6.53;;
42742;SDS011;28397;44.552;-0.848;2023-02-08T06:19:23;10.40;;;6.97;;
42742;SDS011;28397;44.552;-0.848;2023-02-08T06:21:49;12.45;;;7.03;;
42742;SDS011;28397;44.552;-0.848;2023-02-08T06:24:15;10.23;;;6.40;;
42742;SDS011;28397;44.552;-0.848;2023-02-08T06:26:41;15.10;;;8.13;;
42742;SDS011;28397;44.552;-0.848;2023-02-08T06:29:07;9.48;;;6.55;;
42742;SDS011;28397;44.552;-0.848;2023-02-08T06:31:34;11.50;;;6.25;;
42742;SDS011;28397;44.552;-0.848;2023-02-08T06:34:00;11.50;;;6.70;;
42742;SDS011;28397;44.552;-0.848;2023-02-08T06:36:25;9.85;;;7.13;;
42742;SDS011;28397;44.552;-0.848;2023-02-08T06:38:51;7.30;;;5.60;;
42742;SDS011;28397;44.552;-0.848;2023-02-08T06:41:17;11.73;;;8.18;;
42742;SDS011;28397;44.552;-0.848;2023-02-08T06:43:43;10.18;;;6.60;;
42742;SDS011;28397;44.552;-0.848;2023-02-08T06:46:09;12.23;;;7.68;;
42742;SDS011;28397;44.552;-0.848;2023-02-08T06:48:35;10.63;;;7.18;;
42742;SDS011;28397;44.552;-0.848;2023-02-08T06:51:01;8.40;;;6.38;;
42742;SDS011;28397;44.552;-0.848;2023-02-08T06:53:26;10.15;;;7.40;;
42742;SDS011;28397;44.552;-0.848;2023-02-08T06:55:52;12.65;;;7.40;;
42742;SDS011;28397;44.552;-0.848;2023-02-08T06:58:18;11.85;;;8.20;;
42742;SDS011;28397;44.552;-0.848;2023-02-08T07:00:44;10.70;;;7.75;;
42742;SDS011;28397;44.552;-0.848;2023-02-08T07:03:10;10.23;;;7.40;;
42742;SDS011;28397;44.552;-0.848;2023-02-08T07:05:37;9.18;;;6.80;;
42742;SDS011;28397;44.552;-0.848;2023-02-08T07:08:03;11.75;;;7.78;;
42742;SDS011;28397;44.552;-0.848;2023-02-08T07:10:29;10.90;;;8.07;;
42742;SDS011;28397;44.552;-0.848;2023-02-08T07:12:55;12.52;;;8.80;;
42742;SDS011;28397;44.552;-0.848;2023-02-08T07:15:21;13.20;;;8.45;;
42742;SDS011;28397;44.552;-0.848;2023-02-08T07:17:46;10.80;;;7.88;;
42742;SDS011;28397;44.552;-0.848;2023-02-08T07:20:12;10.43;;;6.72;;
42742;SDS011;28397;44.552;-0.848;2023-02-08T07:22:39;10.95;;;7.88;;
42742;SDS011;28397;44.552;-0.848;2023-02-08T07:25:05;12.85;;;8.00;;
42742;SDS011;28397;44.552;-0.848;2023-02-08T07:27:32;12.35;;;7.53;;
42742;SDS011;28397;44.552;-0.848;2023-02-08T07:29:58;12.63;;;8.20;;
42742;SDS011;28397;44.552;-0.848;2023-02-08T07:32:23;11.05;;;8.07;;
42742;SDS011;28397;44.552;-0.848;2023-02-08T07:34:49;9.95;;;7.78;;
42742;SDS011;28397;44.552;-0.848;2023-02-08T07:37:15;13.73;;;7.40;;
42742;SDS011;28397;44.552;-0.848;2023-02-08T07:39:41;10.65;;;7.30;;
42742;SDS011;28397;44.552;-0.848;2023-02-08T07:42:07;11.15;;;7.97;;
42742;SDS011;28397;44.552;-0.848;2023-02-08T07:44:35;9.10;;;6.93;;
42742;SDS011;28397;44.552;-0.848;2023-02-08T07:47:02;7.95;;;6.60;;
42742;SDS011;28397;44.552;-0.848;2023-02-08T07:49:28;8.10;;;6.10;;
42742;SDS011;28397;44.552;-0.848;2023-02-08T07:51:54;9.40;;;5.90;;
42742;SDS011;28397;44.552;-0.848;2023-02-08T07:54:19;14.80;;;10.38;;
42742;SDS011;28397;44.552;-0.848;2023-02-08T07:56:45;28.63;;;18.70;;
42742;SDS011;28397;44.552;-0.848;2023-02-08T07:59:11;17.85;;;13.80;;
42742;SDS011;28397;44.552;-0.848;2023-02-08T08:01:37;15.95;;;11.77;;
42742;SDS011;28397;44.552;-0.848;2023-02-08T08:04:02;12.10;;;9.55;;
42742;SDS011;28397;44.552;-0.848;2023-02-08T08:06:28;16.17;;;13.98;;
42742;SDS011;28397;44.552;-0.848;2023-02-08T08:08:54;15.38;;;11.07;;
42742;SDS011;28397;44.552;-0.848;2023-02-08T08:11:20;11.68;;;8.85;;
42742;SDS011;28397;44.552;-0.848;2023-02-08T08:13:46;8.60;;;7.30;;
42742;SDS011;28397;44.552;-0.848;2023-02-08T08:16:12;7.85;;;6.15;;
42742;SDS011;28397;44.552;-0.848;2023-02-08T08:18:38;8.32;;;5.95;;
42742;SDS011;28397;44.552;-0.848;2023-02-08T08:21:04;8.25;;;6.43;;
42742;SDS011;28397;44.552;-0.848;2023-02-08T08:23:29;8.98;;;6.07;;
42742;SDS011;28397;44.552;-0.848;2023-02-08T08:25:57;7.28;;;5.82;;
42742;SDS011;28397;44.552;-0.848;2023-02-08T08:28:40;9.00;;;5.90;;
42742;SDS011;28397;44.552;-0.848;2023-02-08T08:31:10;7.50;;;5.70;;
42742;SDS011;28397;44.552;-0.848;2023-02-08T08:33:37;9.07;;;6.20;;
42742;SDS011;28397;44.552;-0.848;2023-02-08T08:36:03;9.02;;;6.97;;
42742;SDS011;28397;44.552;-0.848;2023-02-08T08:38:29;10.25;;;6.75;;
42742;SDS011;28397;44.552;-0.848;2023-02-08T08:40:55;9.90;;;6.57;;
42742;SDS011;28397;44.552;-0.848;2023-02-08T08:43:21;6.45;;;5.40;;
42742;SDS011;28397;44.552;-0.848;2023-02-08T08:45:46;8.80;;;5.72;;
42742;SDS011;28397;44.552;-0.848;2023-02-08T08:48:12;9.73;;;5.25;;
42742;SDS011;28397;44.552;-0.848;2023-02-08T08:50:37;7.22;;;5.00;;
42742;SDS011;28397;44.552;-0.848;2023-02-08T08:53:03;10.95;;;5.03;;
42742;SDS011;28397;44.552;-0.848;2023-02-08T08:55:29;6.40;;;5.28;;
42742;SDS011;28397;44.552;-0.848;2023-02-08T08:57:55;7.10;;;5.40;;
42742;SDS011;28397;44.552;-0.848;2023-02-08T09:00:20;9.77;;;5.53;;
42742;SDS011;28397;44.552;-0.848;2023-02-08T09:02:47;7.80;;;4.95;;
42742;SDS011;28397;44.552;-0.848;2023-02-08T09:05:12;6.70;;;5.18;;
42742;SDS011;28397;44.552;-0.848;2023-02-08T09:07:38;6.72;;;5.10;;
42742;SDS011;28397;44.552;-0.848;2023-02-08T09:10:04;7.50;;;4.70;;
42742;SDS011;28397;44.552;-0.848;2023-02-08T09:12:30;6.05;;;4.50;;
42742;SDS011;28397;44.552;-0.848;2023-02-08T09:14:55;5.97;;;4.82;;
42742;SDS011;28397;44.552;-0.848;2023-02-08T09:17:21;5.78;;;4.68;;
42742;SDS011;28397;44.552;-0.848;2023-02-08T09:19:47;5.50;;;4.30;;
42742;SDS011;28397;44.552;-0.848;2023-02-08T09:22:13;6.40;;;4.63;;
42742;SDS011;28397;44.552;-0.848;2023-02-08T09:24:39;6.35;;;4.70;;
42742;SDS011;28397;44.552;-0.848;2023-02-08T09:27:05;5.55;;;4.45;;
42742;SDS011;28397;44.552;-0.848;2023-02-08T09:29:31;9.48;;;6.47;;
42742;SDS011;28397;44.552;-0.848;2023-02-08T09:31:57;6.00;;;4.50;;
42742;SDS011;28397;44.552;-0.848;2023-02-08T09:34:23;7.38;;;5.88;;
42742;SDS011;28397;44.552;-0.848;2023-02-08T09:36:49;5.47;;;3.92;;
42742;SDS011;28397;44.552;-0.848;2023-02-08T09:39:17;5.80;;;4.15;;
42742;SDS011;28397;44.552;-0.848;2023-02-08T09:45:16;4.95;;;4.03;;
42742;SDS011;28397;44.552;-0.848;2023-02-08T09:47:34;6.38;;;4.07;;
42742;SDS011;28397;44.552;-0.848;2023-02-08T09:50:09;6.13;;;3.75;;
42742;SDS011;28397;44.552;-0.848;2023-02-08T09:53:02;5.75;;;3.60;;
42742;SDS011;28397;44.552;-0.848;2023-02-08T09:55:41;5.60;;;3.70;;
42742;SDS011;28397;44.552;-0.848;2023-02-08T09:58:29;5.03;;;3.47;;
42742;SDS011;28397;44.552;-0.848;2023-02-08T10:01:04;6.72;;;3.40;;
42742;SDS011;28397;44.552;-0.848;2023-02-08T10:06:06;5.55;;;3.63;;
42742;SDS011;28397;44.552;-0.848;2023-02-08T10:08:34;5.47;;;3.30;;
42742;SDS011;28397;44.552;-0.848;2023-02-08T10:22:05;7.20;;;3.10;;
42742;SDS011;28397;44.552;-0.848;2023-02-08T10:24:38;4.93;;;3.00;;
42742;SDS011;28397;44.552;-0.848;2023-02-08T10:27:22;5.80;;;2.95;;
42742;SDS011;28397;44.552;-0.848;2023-02-08T10:35:34;4.28;;;3.30;;
42742;SDS011;28397;44.552;-0.848;2023-02-08T10:40:44;6.40;;;3.47;;
42742;SDS011;28397;44.552;-0.848;2023-02-08T10:43:16;6.22;;;3.40;;
42742;SDS011;28397;44.552;-0.848;2023-02-08T10:45:51;5.85;;;3.28;;
42742;SDS011;28397;44.552;-0.848;2023-02-08T10:48:33;6.93;;;3.20;;
42742;SDS011;28397;44.552;-0.848;2023-02-08T10:51:35;5.22;;;3.17;;
42742;SDS011;28397;44.552;-0.848;2023-02-08T10:54:01;5.90;;;3.30;;
42742;SDS011;28397;44.552;-0.848;2023-02-08T10:59:15;6.05;;;2.92;;
42742;SDS011;28397;44.552;-0.848;2023-02-08T11:01:45;5.20;;;3.40;;
42742;SDS011;28397;44.552;-0.848;2023-02-08T11:04:12;6.00;;;3.00;;
42742;SDS011;28397;44.552;-0.848;2023-02-08T11:06:39;4.72;;;2.95;;
42742;SDS011;28397;44.552;-0.848;2023-02-08T11:09:11;6.15;;;3.22;;
42742;SDS011;28397;44.552;-0.848;2023-02-08T11:11:53;9.38;;;3.30;;
42742;SDS011;28397;44.552;-0.848;2023-02-08T11:14:24;4.93;;;3.00;;
42742;SDS011;28397;44.552;-0.848;2023-02-08T11:17:03;6.32;;;3.33;;
42742;SDS011;28397;44.552;-0.848;2023-02-08T11:19:46;5.88;;;3.20;;
42742;SDS011;28397;44.552;-0.848;2023-02-08T11:22:15;11.02;;;3.00;;
42742;SDS011;28397;44.552;-0.848;2023-02-08T11:24:43;6.43;;;3.08;;
42742;SDS011;28397;44.552;-0.848;2023-02-08T11:27:25;3.72;;;2.92;;
42742;SDS011;28397;44.552;-0.848;2023-02-08T11:32:43;7.80;;;3.13;;
42742;SDS011;28397;44.552;-0.848;2023-02-08T11:37:46;4.78;;;2.60;;
42742;SDS011;28397;44.552;-0.848;2023-02-08T11:40:30;4.65;;;2.50;;
42742;SDS011;28397;44.552;-0.848;2023-02-08T11:43:00;4.72;;;2.58;;
42742;SDS011;28397;44.552;-0.848;2023-02-08T11:45:30;7.53;;;2.75;;
42742;SDS011;28397;44.552;-0.848;2023-02-08T11:47:58;6.15;;;2.40;;
42742;SDS011;28397;44.552;-0.848;2023-02-08T11:50:30;8.23;;;2.83;;
42742;SDS011;28397;44.552;-0.848;2023-02-08T11:53:02;24.33;;;14.65;;
42742;SDS011;28397;44.552;-0.848;2023-02-08T11:55:30;7.68;;;5.05;;
42742;SDS011;28397;44.552;-0.848;2023-02-08T12:00:41;5.05;;;2.40;;
42742;SDS011;28397;44.552;-0.848;2023-02-08T12:03:38;4.53;;;2.70;;
42742;SDS011;28397;44.552;-0.848;2023-02-08T12:13:57;7.50;;;2.75;;
42742;SDS011;28397;44.552;-0.848;2023-02-08T12:16:49;5.22;;;2.50;;
42742;SDS011;28397;44.552;-0.848;2023-02-08T12:22:10;8.63;;;2.80;;
42742;SDS011;28397;44.552;-0.848;2023-02-08T12:30:10;4.82;;;2.83;;
42742;SDS011;28397;44.552;-0.848;2023-02-08T12:41:44;8.35;;;2.95;;
42742;SDS011;28397;44.552;-0.848;2023-02-08T12:47:15;3.92;;;2.85;;
42742;SDS011;28397;44.552;-0.848;2023-02-08T12:50:11;6.43;;;4.38;;
42742;SDS011;28397;44.552;-0.848;2023-02-08T12:52:55;9.07;;;3.90;;
42742;SDS011;28397;44.552;-0.848;2023-02-08T12:55:30;5.13;;;2.90;;
42742;SDS011;28397;44.552;-0.848;2023-02-08T13:01:05;7.30;;;5.40;;
42742;SDS011;28397;44.552;-0.848;2023-02-08T13:06:16;5.43;;;3.75;;
42742;SDS011;28397;44.552;-0.848;2023-02-08T13:11:19;3.80;;;2.88;;
42742;SDS011;28397;44.552;-0.848;2023-02-08T13:13:51;4.70;;;3.17;;
42742;SDS011;28397;44.552;-0.848;2023-02-08T13:16:34;5.72;;;3.58;;
42742;SDS011;28397;44.552;-0.848;2023-02-08T13:22:17;5.78;;;3.55;;
42742;SDS011;28397;44.552;-0.848;2023-02-08T13:24:43;6.50;;;3.10;;
42742;SDS011;28397;44.552;-0.848;2023-02-08T13:27:14;4.93;;;3.60;;
42742;SDS011;28397;44.552;-0.848;2023-02-08T13:29:45;3.42;;;3.13;;
42742;SDS011;28397;44.552;-0.848;2023-02-08T13:35:29;5.63;;;3.10;;
42742;SDS011;28397;44.552;-0.848;2023-02-08T13:38:06;3.90;;;2.65;;
42742;SDS011;28397;44.552;-0.848;2023-02-08T13:43:34;4.88;;;3.05;;
42742;SDS011;28397;44.552;-0.848;2023-02-08T13:46:04;6.40;;;4.18;;
42742;SDS011;28397;44.552;-0.848;2023-02-08T13:49:03;5.97;;;4.28;;
42742;SDS011;28397;44.552;-0.848;2023-02-08T13:56:38;5.68;;;4.03;;
42742;SDS011;28397;44.552;-0.848;2023-02-08T14:07:47;4.07;;;2.95;;
42742;SDS011;28397;44.552;-0.848;2023-02-08T14:10:22;5.18;;;2.95;;
42742;SDS011;28397;44.552;-0.848;2023-02-08T14:13:03;5.78;;;3.55;;
42742;SDS011;28397;44.552;-0.848;2023-02-08T14:16:20;4.07;;;3.38;;
42742;SDS011;28397;44.552;-0.848;2023-02-08T14:21:42;5.40;;;3.65;;
42742;SDS011;28397;44.552;-0.848;2023-02-08T14:24:26;5.53;;;3.45;;
42742;SDS011;28397;44.552;-0.848;2023-02-08T14:32:24;6.45;;;3.30;;
42742;SDS011;28397;44.552;-0.848;2023-02-08T14:35:26;4.45;;;2.90;;
42742;SDS011;28397;44.552;-0.848;2023-02-08T14:37:51;5.25;;;3.70;;
42742;SDS011;28397;44.552;-0.848;2023-02-08T14:40:48;5.03;;;3.28;;
42742;SDS011;28397;44.552;-0.848;2023-02-08T14:45:44;5.65;;;3.25;;
42742;SDS011;28397;44.552;-0.848;2023-02-08T14:51:14;6.90;;;3.25;;
42742;SDS011;28397;44.552;-0.848;2023-02-08T14:53:47;4.93;;;3.60;;
42742;SDS011;28397;44.552;-0.848;2023-02-08T14:56:18;12.60;;;7.35;;
42742;SDS011;28397;44.552;-0.848;2023-02-08T14:59:04;11.75;;;7.47;;
42742;SDS011;28397;44.552;-0.848;2023-02-08T15:01:40;5.97;;;4.30;;
42742;SDS011;28397;44.552;-0.848;2023-02-08T15:04:17;7.68;;;4.35;;
42742;SDS011;28397;44.552;-0.848;2023-02-08T15:09:45;7.88;;;4.68;;
42742;SDS011;28397;44.552;-0.848;2023-02-08T15:12:16;6.80;;;4.35;;
42742;SDS011;28397;44.552;-0.848;2023-02-08T15:14:47;10.30;;;6.47;;
42742;SDS011;28397;44.552;-0.848;2023-02-08T15:17:23;13.07;;;8.13;;
42742;SDS011;28397;44.552;-0.848;2023-02-08T15:19:58;7.88;;;5.53;;
42742;SDS011;28397;44.552;-0.848;2023-02-08T15:22:34;12.57;;;7.28;;
42742;SDS011;28397;44.552;-0.848;2023-02-08T15:27:48;6.60;;;5.20;;
42742;SDS011;28397;44.552;-0.848;2023-02-08T15:32:54;7.65;;;4.43;;
42742;SDS011;28397;44.552;-0.848;2023-02-08T15:35:20;6.78;;;4.65;;
42742;SDS011;28397;44.552;-0.848;2023-02-08T15:37:50;9.23;;;5.75;;
42742;SDS011;28397;44.552;-0.848;2023-02-08T15:40:21;8.27;;;4.55;;
42742;SDS011;28397;44.552;-0.848;2023-02-08T15:42:54;7.38;;;4.65;;
42742;SDS011;28397;44.552;-0.848;2023-02-08T15:45:27;6.32;;;4.60;;
42742;SDS011;28397;44.552;-0.848;2023-02-08T15:47:55;7.28;;;4.85;;
42742;SDS011;28397;44.552;-0.848;2023-02-08T15:50:22;7.80;;;4.93;;
42742;SDS011;28397;44.552;-0.848;2023-02-08T15:52:51;7.28;;;5.00;;
42742;SDS011;28397;44.552;-0.848;2023-02-08T15:55:23;7.95;;;4.95;;
42742;SDS011;28397;44.552;-0.848;2023-02-08T15:57:55;6.90;;;4.50;;
42742;SDS011;28397;44.552;-0.848;2023-02-08T16:00:24;5.65;;;4.45;;
42742;SDS011;28397;44.552;-0.848;2023-02-08T16:03:15;8.50;;;4.72;;
42742;SDS011;28397;44.552;-0.848;2023-02-08T16:05:47;10.88;;;6.03;;
42742;SDS011;28397;44.552;-0.848;2023-02-08T16:08:17;7.30;;;4.63;;
42742;SDS011;28397;44.552;-0.848;2023-02-08T16:10:48;5.63;;;4.30;;
42742;SDS011;28397;44.552;-0.848;2023-02-08T16:13:24;7.78;;;5.00;;
42742;SDS011;28397;44.552;-0.848;2023-02-08T16:15:53;6.00;;;4.07;;
42742;SDS011;28397;44.552;-0.848;2023-02-08T16:18:30;14.00;;;8.55;;
42742;SDS011;28397;44.552;-0.848;2023-02-08T16:21:20;8.52;;;5.88;;
42742;SDS011;28397;44.552;-0.848;2023-02-08T16:23:54;16.95;;;12.48;;
42742;SDS011;28397;44.552;-0.848;2023-02-08T16:28:50;7.47;;;5.10;;
42742;SDS011;28397;44.552;-0.848;2023-02-08T16:31:22;12.45;;;8.00;;
42742;SDS011;28397;44.552;-0.848;2023-02-08T16:34:27;6.18;;;4.30;;
42742;SDS011;28397;44.552;-0.848;2023-02-08T16:36:48;5.38;;;3.65;;
42742;SDS011;28397;44.552;-0.848;2023-02-08T16:44:26;17.63;;;11.52;;
42742;SDS011;28397;44.552;-0.848;2023-02-08T16:46:53;15.45;;;9.25;;
42742;SDS011;28397;44.552;-0.848;2023-02-08T16:49:18;10.40;;;7.45;;
42742;SDS011;28397;44.552;-0.848;2023-02-08T16:51:44;6.35;;;3.90;;
42742;SDS011;28397;44.552;-0.848;2023-02-08T16:54:11;8.48;;;5.43;;
42742;SDS011;28397;44.552;-0.848;2023-02-08T16:56:45;8.27;;;5.25;;
42742;SDS011;28397;44.552;-0.848;2023-02-08T16:59:13;6.35;;;4.78;;
42742;SDS011;28397;44.552;-0.848;2023-02-08T17:01:40;6.05;;;4.38;;
42742;SDS011;28397;44.552;-0.848;2023-02-08T17:04:12;5.03;;;3.97;;
42742;SDS011;28397;44.552;-0.848;2023-02-08T17:06:39;12.63;;;9.77;;
42742;SDS011;28397;44.552;-0.848;2023-02-08T17:09:07;5.07;;;4.03;;
42742;SDS011;28397;44.552;-0.848;2023-02-08T17:11:35;5.45;;;4.40;;
42742;SDS011;28397;44.552;-0.848;2023-02-08T17:14:01;6.50;;;5.05;;
42742;SDS011;28397;44.552;-0.848;2023-02-08T17:16:29;7.53;;;6.32;;
42742;SDS011;28397;44.552;-0.848;2023-02-08T17:18:57;31.85;;;23.63;;
42742;SDS011;28397;44.552;-0.848;2023-02-08T17:21:23;31.70;;;22.17;;
42742;SDS011;28397;44.552;-0.848;2023-02-08T17:23:49;41.47;;;27.55;;
42742;SDS011;28397;44.552;-0.848;2023-02-08T17:26:16;79.93;;;47.75;;
42742;SDS011;28397;44.552;-0.848;2023-02-08T17:28:46;88.53;;;50.97;;
42742;SDS011;28397;44.552;-0.848;2023-02-08T17:31:14;95.32;;;57.10;;
42742;SDS011;28397;44.552;-0.848;2023-02-08T17:33:40;117.47;;;67.93;;
42742;SDS011;28397;44.552;-0.848;2023-02-08T17:36:07;52.97;;;31.83;;
42742;SDS011;28397;44.552;-0.848;2023-02-08T17:38:34;105.75;;;62.92;;
42742;SDS011;28397;44.552;-0.848;2023-02-08T17:41:08;101.13;;;60.75;;
42742;SDS011;28397;44.552;-0.848;2023-02-08T17:43:37;105.70;;;68.90;;